Time;durP1;ratioP1;P1;durP2;ratioP2;P2;SDS_P1;SDS_P2;PMS_P1;PMS_P2;Temp;Humidity;BMP_temperature;BMP_pressure;BME280_temperature;BME280_humidity;BME280_pressure;Samples;Min_cycle;Max_cycle;Signal;HPM_P1;HPM_P2
2023/05/24 00:02:06;;;;;;;;;2.00;2.00;;;;;13.79;51.31;101627.72;5053557;28;45647;-78
2023/05/24 00:04:32;;;;;;;;;3.00;3.00;;;;;13.76;51.48;101622.69;5062714;28;46462;-80
2023/05/24 00:06:57;;;;;;;;;3.75;2.00;;;;;13.71;51.83;101630.00;5052050;28;48377;-80
2023/05/24 00:09:23;;;;;;;;;4.00;2.00;;;;;13.68;51.96;101621.50;5066078;28;45601;-81
2023/05/24 00:11:48;;;;;;;;;4.00;2.75;;;;;13.63;51.57;101619.16;5063699;28;45734;-81
2023/05/24 00:14:13;;;;;;;;;3.25;3.00;;;;;13.64;52.19;101625.28;5064602;28;47130;-81
2023/05/24 00:16:39;;;;;;;;;4.00;3.00;;;;;13.61;52.13;101615.78;5053201;28;45757;-80
2023/05/24 00:19:04;;;;;;;;;3.00;2.00;;;;;13.60;52.21;101610.66;5067340;28;45778;-80
2023/05/24 00:21:31;;;;;;;;;3.00;2.00;;;;;13.54;52.43;101611.06;5065908;27;45740;-80
2023/05/24 00:23:56;;;;;;;;;1.00;1.00;;;;;13.52;52.29;101602.41;5065721;28;45770;-82
2023/05/24 00:26:22;;;;;;;;;4.25;3.00;;;;;13.48;53.00;101616.72;5060249;28;46325;-80
2023/05/24 00:28:47;;;;;;;;;5.00;3.00;;;;;13.41;53.13;101601.34;5068235;28;45695;-81
2023/05/24 00:31:13;;;;;;;;;2.00;1.00;;;;;13.38;53.38;101598.09;5064882;27;45643;-81
2023/05/24 00:33:38;;;;;;;;;2.00;2.00;;;;;13.32;53.44;101594.06;5053046;28;45689;-81
2023/05/24 00:36:03;;;;;;;;;5.00;3.00;;;;;13.28;53.08;101594.38;5061015;28;46100;-80
2023/05/24 00:38:29;;;;;;;;;4.75;3.00;;;;;13.19;53.61;101598.44;5072303;27;46556;-81
2023/05/24 00:40:59;;;;;;;;;7.25;4.00;;;;;13.16;53.79;101596.03;5060669;27;45762;-79
2023/05/24 00:43:25;;;;;;;;;3.75;2.25;;;;;13.12;54.15;101594.53;5067950;28;47663;-80
2023/05/24 00:46:23;;;;;;;;;4.00;3.25;;;;;13.09;54.03;101588.59;5063551;28;46079;-82
2023/05/24 00:48:49;;;;;;;;;6.75;4.75;;;;;13.06;53.81;101592.28;5059343;27;45670;-81
2023/05/24 00:51:15;;;;;;;;;2.00;2.00;;;;;13.03;54.06;101589.84;5061962;28;45688;-81
2023/05/24 00:53:44;;;;;;;;;5.75;2.50;;;;;13.01;54.48;101592.56;5053237;28;48398;-81
2023/05/24 00:56:12;;;;;;;;;8.00;2.75;;;;;13.00;54.55;101583.00;5068247;27;46081;-81
2023/05/24 00:58:37;;;;;;;;;3.50;3.00;;;;;12.94;54.71;101574.69;5068183;28;46139;-80
2023/05/24 01:01:03;;;;;;;;;3.00;2.75;;;;;12.94;54.75;101577.31;5052856;28;45761;-81
2023/05/24 01:03:29;;;;;;;;;4.50;2.50;;;;;12.91;54.85;101577.50;5061591;28;46267;-80
2023/05/24 01:05:56;;;;;;;;;6.50;5.25;;;;;12.89;55.00;101580.25;5055124;28;45716;-81
2023/05/24 01:08:41;;;;;;;;;3.75;3.00;;;;;12.85;54.85;101570.00;5067037;27;45858;-81
2023/05/24 01:11:44;;;;;;;;;5.50;3.75;;;;;12.84;55.20;101579.69;5054000;28;45837;-80
2023/05/24 01:14:28;;;;;;;;;3.00;2.25;;;;;12.81;54.87;101579.88;5074909;27;47384;-81
2023/05/24 01:17:08;;;;;;;;;3.00;3.00;;;;;12.77;55.25;101583.66;5062864;28;46027;-81
2023/05/24 01:20:10;;;;;;;;;5.25;4.00;;;;;12.74;55.43;101583.84;5069355;28;45724;-80
2023/05/24 01:22:44;;;;;;;;;4.00;3.00;;;;;12.72;55.81;101583.13;4993641;28;45741;-81
2023/05/24 01:25:37;;;;;;;;;5.00;3.75;;;;;12.68;55.70;101592.16;4989145;28;45652;-79
2023/05/24 01:28:05;;;;;;;;;3.25;2.00;;;;;12.61;55.99;101583.81;5001054;28;45667;-79
2023/05/24 01:30:31;;;;;;;;;3.50;3.00;;;;;12.58;55.69;101581.34;5002962;28;45917;-81
2023/05/24 01:32:57;;;;;;;;;5.75;3.00;;;;;12.58;56.30;101576.09;4973579;28;46056;-82
2023/05/24 01:35:22;;;;;;;;;2.75;2.75;;;;;12.58;56.38;101586.59;5004211;28;47190;-82
2023/05/24 01:37:47;;;;;;;;;7.00;3.50;;;;;12.56;56.24;101587.66;5008589;28;46834;-80
2023/05/24 01:40:13;;;;;;;;;1.00;1.00;;;;;12.55;56.30;101578.94;5004678;28;45694;-80
2023/05/24 01:42:46;;;;;;;;;4.00;3.00;;;;;12.54;56.76;101590.38;5004019;28;45782;-79
2023/05/24 01:45:21;;;;;;;;;4.50;3.00;;;;;12.49;56.73;101589.81;5007383;28;46090;-80
2023/05/24 01:48:35;;;;;;;;;2.00;2.00;;;;;12.44;56.99;101607.69;5009314;28;45990;-80
2023/05/24 01:51:06;;;;;;;;;5.50;3.75;;;;;12.38;57.29;101597.53;4970134;28;45811;-80
2023/05/24 01:53:40;;;;;;;;;3.00;3.00;;;;;12.35;57.74;101592.50;4968806;28;45723;-80
2023/05/24 01:56:07;;;;;;;;;7.25;5.50;;;;;12.29;57.89;101592.88;4994239;28;45787;-80
2023/05/24 01:58:35;;;;;;;;;7.00;4.00;;;;;12.22;57.70;101581.03;5031140;28;46060;-80
2023/05/24 02:01:01;;;;;;;;;5.00;3.50;;;;;12.17;57.75;101583.97;5063703;28;45582;-81
2023/05/24 02:03:27;;;;;;;;;3.00;3.00;;;;;12.16;57.82;101592.78;5059881;27;45663;-79
2023/05/24 02:05:52;;;;;;;;;4.50;3.25;;;;;12.13;57.93;101592.13;5063077;28;46304;-79
2023/05/24 02:08:18;;;;;;;;;4.00;3.00;;;;;12.10;58.17;101589.69;5058678;28;45712;-79
2023/05/24 02:10:43;;;;;;;;;5.00;2.50;;;;;12.06;58.07;101589.03;5068931;27;45751;-79
2023/05/24 02:13:09;;;;;;;;;7.25;4.00;;;;;12.06;58.66;101617.94;5070952;28;47585;-78
2023/05/24 02:15:34;;;;;;;;;4.50;4.50;;;;;12.01;58.36;101591.09;5084921;27;48182;-79
2023/05/24 02:18:00;;;;;;;;;5.75;3.75;;;;;12.02;58.60;101591.94;5057756;28;46116;-80
2023/05/24 02:20:35;;;;;;;;;3.50;2.00;;;;;12.00;58.43;101604.31;5071971;27;46210;-79
2023/05/24 02:23:01;;;;;;;;;4.00;3.00;;;;;11.94;58.86;101591.56;5058187;28;45833;-80
2023/05/24 02:25:26;;;;;;;;;4.00;4.00;;;;;11.95;59.02;101580.13;5070615;27;46460;-80
2023/05/24 02:27:51;;;;;;;;;6.75;3.75;;;;;11.91;58.92;101576.84;5071126;28;46407;-79
2023/05/24 02:30:17;;;;;;;;;3.75;3.00;;;;;11.91;59.15;101576.00;5070563;28;45692;-79
2023/05/24 02:32:42;;;;;;;;;6.00;3.25;;;;;11.85;59.12;101586.88;5051460;28;45706;-79
2023/05/24 02:35:08;;;;;;;;;3.50;3.50;;;;;11.83;59.39;101578.25;5050159;28;46255;-80
2023/05/24 02:37:33;;;;;;;;;7.25;3.00;;;;;11.81;59.02;101585.38;5063452;28;46186;-82
2023/05/24 02:39:58;;;;;;;;;5.00;4.00;;;;;11.81;59.71;101583.59;5071074;27;45940;-82
2023/05/24 02:42:24;;;;;;;;;3.00;2.25;;;;;11.79;59.56;101593.34;5057678;28;45764;-81
2023/05/24 02:44:51;;;;;;;;;3.25;3.00;;;;;11.77;59.63;101585.56;5070186;27;46345;-82
2023/05/24 02:47:17;;;;;;;;;6.75;2.75;;;;;11.75;59.98;101582.19;5063771;28;47954;-82
2023/05/24 02:49:42;;;;;;;;;7.25;6.00;;;;;11.71;60.00;101588.50;5055041;28;45792;-81
2023/05/24 02:52:08;;;;;;;;;6.75;4.00;;;;;11.69;59.97;101585.16;5050836;28;45725;-82
2023/05/24 02:54:34;;;;;;;;;8.00;5.00;;;;;11.67;60.00;101579.13;5049866;28;45690;-81
2023/05/24 02:57:00;;;;;;;;;5.50;4.00;;;;;11.67;60.01;101578.28;5069579;28;45573;-80
2023/05/24 02:59:25;;;;;;;;;4.00;4.00;;;;;11.64;60.04;101560.97;5070896;27;45852;-79
2023/05/24 03:01:51;;;;;;;;;6.00;3.75;;;;;11.64;60.02;101560.97;5071274;27;46008;-79
2023/05/24 03:04:16;;;;;;;;;1.25;1.00;;;;;11.65;60.19;101559.19;5057595;28;45691;-79
2023/05/24 03:06:42;;;;;;;;;6.00;5.00;;;;;11.64;59.88;101560.13;5069780;28;46002;-79
2023/05/24 03:09:08;;;;;;;;;7.50;4.00;;;;;11.64;60.13;101554.88;5070554;27;46169;-79
2023/05/24 03:11:33;;;;;;;;;5.00;4.00;;;;;11.65;60.44;101567.06;5069859;27;45802;-81
2023/05/24 03:13:59;;;;;;;;;5.00;3.00;;;;;11.63;60.37;101568.91;5069719;28;46050;-79
2023/05/24 03:16:24;;;;;;;;;3.50;3.50;;;;;11.60;60.32;101556.00;5066323;28;45763;-80
2023/05/24 03:18:50;;;;;;;;;2.00;1.00;;;;;11.61;60.53;101555.03;5073873;27;47197;-79
2023/05/24 03:21:16;;;;;;;;;4.00;3.25;;;;;11.60;60.33;101563.88;5073795;27;45701;-80
2023/05/24 03:23:42;;;;;;;;;3.50;3.25;;;;;11.56;60.29;101559.72;5072920;27;45748;-81
2023/05/24 03:26:07;;;;;;;;;3.25;3.25;;;;;11.57;60.92;101566.66;5068303;28;45972;-81
2023/05/24 03:28:33;;;;;;;;;4.50;2.50;;;;;11.54;60.95;101570.31;5066308;28;45737;-80
2023/05/24 03:30:59;;;;;;;;;4.00;3.00;;;;;11.51;60.72;101554.75;5067726;28;45794;-80
2023/05/24 03:33:24;;;;;;;;;7.75;3.75;;;;;11.50;60.96;101563.53;5053918;28;45521;-81
2023/05/24 03:35:49;;;;;;;;;7.75;4.00;;;;;11.48;60.94;101565.44;5063887;28;46149;-80
2023/05/24 03:38:15;;;;;;;;;3.25;2.50;;;;;11.46;61.05;101559.41;5071915;27;45830;-80
2023/05/24 03:40:40;;;;;;;;;7.75;4.00;;;;;11.46;61.34;101561.19;5074009;28;45693;-80
2023/05/24 03:43:06;;;;;;;;;6.00;6.00;;;;;11.44;61.20;101553.44;5070086;28;46662;-79
2023/05/24 03:45:31;;;;;;;;;7.50;3.75;;;;;11.40;61.57;101567.66;5069341;28;46119;-80
2023/05/24 03:47:57;;;;;;;;;6.00;4.25;;;;;11.39;61.56;101554.66;5072809;28;46055;-81
2023/05/24 03:50:23;;;;;;;;;3.75;3.00;;;;;11.36;61.67;101567.00;5060572;28;46201;-80
2023/05/24 03:52:48;;;;;;;;;4.25;3.00;;;;;11.33;61.82;101566.34;5074592;27;45725;-79
2023/05/24 03:55:14;;;;;;;;;3.75;3.00;;;;;11.32;61.67;101565.50;5074513;27;46049;-79
2023/05/24 03:57:40;;;;;;;;;4.00;4.00;;;;;11.32;61.62;101572.53;5063243;27;45680;-79
2023/05/24 04:00:08;;;;;;;;;6.75;4.00;;;;;11.31;61.62;101568.22;5071548;28;45761;-79
2023/05/24 04:02:36;;;;;;;;;6.25;4.00;;;;;11.32;61.83;101583.88;5089638;27;46718;-79
2023/05/24 04:05:03;;;;;;;;;5.75;3.75;;;;;11.32;61.37;101575.16;5058963;27;46548;-80
2023/05/24 04:07:28;;;;;;;;;6.75;5.00;;;;;11.32;61.80;101576.00;5074137;27;45947;-81
2023/05/24 04:09:54;;;;;;;;;3.75;3.00;;;;;11.31;61.75;101583.94;5068784;28;46028;-80
2023/05/24 04:12:19;;;;;;;;;5.50;3.00;;;;;11.30;61.65;101592.75;5075007;28;45592;-81
2023/05/24 04:14:45;;;;;;;;;4.25;4.25;;;;;11.29;61.95;101585.81;5066572;28;45641;-80
2023/05/24 04:17:11;;;;;;;;;4.00;3.00;;;;;11.29;61.49;101594.53;5067092;28;45610;-80
2023/05/24 04:19:36;;;;;;;;;7.75;6.00;;;;;11.28;61.64;101587.56;5067412;27;45709;-80
2023/05/24 04:22:02;;;;;;;;;4.75;4.00;;;;;11.28;61.54;101584.13;5074659;27;46395;-79
2023/05/24 04:24:27;;;;;;;;;2.50;2.25;;;;;11.29;61.73;101588.44;5072426;27;45703;-79
2023/05/24 04:26:53;;;;;;;;;6.75;4.25;;;;;11.29;61.81;101596.28;5073375;27;45741;-80
2023/05/24 04:29:19;;;;;;;;;6.25;6.00;;;;;11.27;61.61;101606.06;5063951;28;45588;-80
2023/05/24 04:31:44;;;;;;;;;5.00;3.00;;;;;11.28;61.54;101594.63;5073379;28;45585;-81
2023/05/24 04:34:12;;;;;;;;;8.00;6.00;;;;;11.29;61.46;101604.16;5072397;28;46225;-82
2023/05/24 04:36:37;;;;;;;;;6.75;3.75;;;;;11.31;61.40;101599.69;5073231;27;46882;-79
2023/05/24 04:39:04;;;;;;;;;5.00;3.00;;;;;11.30;61.32;101601.47;5066074;28;45677;-79
2023/05/24 04:41:31;;;;;;;;;6.75;4.00;;;;;11.32;61.45;101604.84;5063887;28;45922;-79
2023/05/24 04:43:58;;;;;;;;;4.00;4.00;;;;;11.30;61.55;101605.88;5066800;27;45967;-78
2023/05/24 04:46:24;;;;;;;;;5.25;3.00;;;;;11.35;61.27;101620.41;5065815;28;45695;-78
2023/05/24 04:48:50;;;;;;;;;6.25;4.00;;;;;11.35;60.97;101615.16;5057382;28;45861;-78
2023/05/24 04:51:15;;;;;;;;;3.75;3.75;;;;;11.39;61.32;101613.19;5054046;28;48413;-78
2023/05/24 04:53:41;;;;;;;;;4.50;3.50;;;;;11.37;61.02;101607.19;5070674;28;46411;-79
2023/05/24 04:56:07;;;;;;;;;3.25;3.00;;;;;11.41;61.21;101620.97;5061070;27;45639;-80
2023/05/24 04:58:33;;;;;;;;;3.50;2.25;;;;;11.41;61.08;101618.34;5057478;28;46090;-79
2023/05/24 05:00:59;;;;;;;;;5.50;4.00;;;;;11.38;61.31;101602.81;5072587;27;45651;-79
2023/05/24 05:03:25;;;;;;;;;4.00;3.75;;;;;11.35;61.37;101609.06;5071225;27;45591;-79
2023/05/24 05:05:53;;;;;;;;;3.50;2.25;;;;;11.36;61.35;101616.84;5072782;27;45658;-80
2023/05/24 05:08:19;;;;;;;;;7.00;3.25;;;;;11.33;61.44;101624.91;5055012;28;45765;-82
2023/05/24 05:10:45;;;;;;;;;3.00;2.75;;;;;11.30;61.51;101622.44;5060278;27;45658;-81
2023/05/24 05:13:10;;;;;;;;;5.50;4.00;;;;;11.27;61.41;101627.03;5070492;28;46065;-80
2023/05/24 05:15:36;;;;;;;;;4.25;3.00;;;;;11.27;61.24;101620.03;5067161;28;45663;-80
2023/05/24 05:18:01;;;;;;;;;6.25;3.25;;;;;11.26;61.44;101620.09;5064462;28;45888;-80
2023/05/24 05:20:27;;;;;;;;;6.25;5.50;;;;;11.29;61.23;101615.50;5072636;27;45617;-80
2023/05/24 05:22:52;;;;;;;;;7.50;5.50;;;;;11.33;60.96;101618.81;5052614;28;47301;-79
2023/05/24 05:25:17;;;;;;;;;6.50;4.00;;;;;11.35;61.09;101617.78;5053351;28;45655;-79
2023/05/24 05:27:43;;;;;;;;;6.75;4.50;;;;;11.38;60.86;101616.78;5065733;28;45695;-79
2023/05/24 05:30:10;;;;;;;;;7.00;4.25;;;;;11.40;60.89;101611.41;5065271;27;46954;-80
2023/05/24 05:32:36;;;;;;;;;7.50;5.50;;;;;11.46;60.66;101618.94;5058173;27;46523;-80
2023/05/24 05:35:01;;;;;;;;;8.00;6.50;;;;;11.49;60.64;101616.16;5070026;27;45728;-78
2023/05/24 05:37:28;;;;;;;;;5.50;3.25;;;;;11.52;60.73;101615.94;5069655;27;45902;-79
2023/05/24 05:39:53;;;;;;;;;6.00;4.50;;;;;11.51;60.78;101617.72;5070724;27;45495;-79
2023/05/24 05:42:19;;;;;;;;;7.00;3.00;;;;;11.55;60.58;101607.91;5073778;27;45604;-79
2023/05/24 05:44:45;;;;;;;;;5.00;4.50;;;;;11.56;60.74;101615.69;5075334;28;45537;-80
2023/05/24 05:47:10;;;;;;;;;4.75;3.75;;;;;11.57;60.74;101616.53;5076237;28;45804;-80
2023/05/24 05:49:36;;;;;;;;;4.00;4.00;;;;;11.56;60.63;101613.06;5073205;28;46609;-81
2023/05/24 05:52:03;;;;;;;;;5.50;4.00;;;;;11.61;60.58;101615.41;5074761;28;45594;-80
2023/05/24 05:57:51;;;;;;;;;6.75;4.00;;;;;11.66;60.57;101616.81;5075278;28;45715;-77
2023/05/24 06:00:17;;;;;;;;;1.00;0.25;;;;;11.67;60.35;101617.66;5074364;28;45808;-78
2023/05/24 06:02:42;;;;;;;;;3.00;3.00;;;;;11.71;60.31;101627.88;5074314;28;46600;-76
2023/05/24 06:05:08;;;;;;;;;7.25;6.00;;;;;11.75;60.18;101620.72;5074085;28;45686;-81
2023/05/24 06:07:34;;;;;;;;;9.00;6.75;;;;;11.76;60.34;101625.91;5074416;27;45608;-82
2023/05/24 06:13:21;;;;;;;;;7.25;5.00;;;;;11.84;60.13;101624.56;5073737;28;46120;-81
2023/05/24 06:15:51;;;;;;;;;6.75;4.50;;;;;11.84;60.24;101620.16;5074122;27;45613;-80
2023/05/24 06:18:16;;;;;;;;;7.00;5.50;;;;;11.86;60.01;101617.47;5074617;27;45704;-79
2023/05/24 06:20:43;;;;;;;;;7.00;6.75;;;;;11.90;59.93;101625.06;5073977;27;45507;-80
2023/05/24 06:23:08;;;;;;;;;7.25;6.00;;;;;11.89;59.95;101628.59;5071491;28;48196;-81
2023/05/24 06:25:34;;;;;;;;;8.00;5.50;;;;;11.93;60.02;101631.91;5074226;27;45859;-82
2023/05/24 06:28:00;;;;;;;;;7.50;6.25;;;;;11.95;59.88;101633.50;5073132;28;45490;-80
2023/05/24 06:30:28;;;;;;;;;6.50;4.00;;;;;11.98;59.75;101635.94;5074369;27;45583;-79
2023/05/24 06:32:55;;;;;;;;;9.00;4.50;;;;;12.00;59.63;101639.31;5072394;28;47116;-77
2023/05/24 06:35:21;;;;;;;;;8.00;6.00;;;;;11.98;59.71;101635.09;5074241;27;45846;-80
2023/05/24 06:37:47;;;;;;;;;6.50;6.00;;;;;11.98;59.88;101635.09;5074459;28;45855;-77
2023/05/24 06:43:33;;;;;;;;;6.00;4.00;;;;;11.98;59.58;101635.94;5073525;28;46246;-79
2023/05/24 06:45:59;;;;;;;;;7.75;4.00;;;;;11.99;59.54;101637.63;5073659;28;45631;-79
2023/05/24 06:48:25;;;;;;;;;3.00;2.50;;;;;11.99;59.42;101634.16;5072040;28;45958;-81
2023/05/24 06:50:50;;;;;;;;;8.25;6.00;;;;;12.01;59.36;101632.28;5071644;28;46781;-79
2023/05/24 06:53:16;;;;;;;;;11.00;7.00;;;;;12.02;59.61;101642.69;5076416;28;46081;-79
2023/05/24 06:59:03;;;;;;;;;4.00;4.00;;;;;12.08;59.36;101644.97;5077048;28;45587;-80
2023/05/24 07:01:28;;;;;;;;;4.25;3.50;;;;;12.14;59.53;101649.84;5078024;28;45712;-80
2023/05/24 07:03:54;;;;;;;;;6.50;4.00;;;;;12.19;59.04;101645.16;5078524;28;45599;-80
2023/05/24 07:06:20;;;;;;;;;10.25;6.50;;;;;12.23;59.34;101653.69;5078077;28;45698;-80
2023/05/24 07:08:45;;;;;;;;;6.50;6.00;;;;;12.26;59.02;101637.72;5077670;27;45567;-79
2023/05/24 07:11:11;;;;;;;;;5.00;4.00;;;;;12.26;59.02;101648.22;5077313;28;46897;-79
2023/05/24 07:13:36;;;;;;;;;7.50;7.00;;;;;12.34;58.81;101658.28;5076658;28;46203;-80
2023/05/24 07:16:01;;;;;;;;;7.75;7.00;;;;;12.38;58.78;101651.88;5077569;27;45706;-79
2023/05/24 07:18:27;;;;;;;;;6.25;5.00;;;;;12.40;58.52;101652.66;5077745;28;45668;-80
2023/05/24 07:20:53;;;;;;;;;8.50;6.75;;;;;12.40;58.45;101648.25;5077176;28;45508;-79
2023/05/24 07:23:19;;;;;;;;;7.25;5.50;;;;;12.44;58.66;101646.25;5075142;28;48311;-80
2023/05/24 07:29:06;;;;;;;;;7.75;6.00;;;;;12.51;58.04;101656.31;5076806;28;45637;-80
2023/05/24 07:31:33;;;;;;;;;7.00;4.75;;;;;12.53;57.88;101646.50;5076948;28;46364;-79
2023/05/24 07:33:59;;;;;;;;;9.75;6.75;;;;;12.58;57.74;101649.69;5092004;27;48228;-79
2023/05/24 07:36:24;;;;;;;;;5.75;3.50;;;;;12.57;58.01;101642.78;5077006;27;46019;-79
2023/05/24 07:45:14;;;;;;;;;8.50;5.25;;;;;12.71;56.88;101656.81;5076341;28;45618;-79
2023/05/24 07:47:40;;;;;;;;;9.00;6.75;;;;;12.73;57.21;101657.59;5076894;27;45739;-78
2023/05/24 07:50:06;;;;;;;;;8.50;5.25;;;;;12.76;56.83;101654.75;5076716;27;45462;-80
2023/05/24 07:52:31;;;;;;;;;6.75;5.00;;;;;12.78;56.92;101652.88;5076634;27;46634;-78
2023/05/24 07:54:57;;;;;;;;;5.00;4.50;;;;;12.83;57.14;101661.31;5074521;28;46299;-78
2023/05/24 07:57:22;;;;;;;;;7.25;5.25;;;;;12.89;57.02;101666.19;5076714;27;45808;-79
2023/05/24 07:59:48;;;;;;;;;5.50;5.50;;;;;12.94;56.63;101664.09;5076651;28;45612;-81
2023/05/24 08:02:14;;;;;;;;;9.25;5.75;;;;;12.99;56.94;101657.59;5076141;28;46356;-79
2023/05/24 08:04:40;;;;;;;;;5.50;5.00;;;;;13.04;56.39;101662.56;5076068;28;45928;-78
2023/05/24 08:07:05;;;;;;;;;8.00;5.00;;;;;13.09;55.91;101672.78;5076451;27;45529;-79
2023/05/24 08:09:35;;;;;;;;;6.00;4.00;;;;;13.12;56.10;101673.47;5076325;27;45537;-78
2023/05/24 08:12:07;;;;;;;;;5.50;5.00;;;;;13.15;55.81;101668.00;5076327;27;46374;-80
2023/05/24 08:14:32;;;;;;;;;4.00;3.50;;;;;13.19;56.25;101674.75;5076041;27;46188;-80
2023/05/24 08:16:59;;;;;;;;;5.25;4.00;;;;;13.21;55.44;101661.50;5076173;27;45901;-79
2023/05/24 08:19:26;;;;;;;;;4.25;4.00;;;;;13.24;55.83;101656.88;5076451;27;45770;-77
2023/05/24 08:21:51;;;;;;;;;8.25;7.50;;;;;13.27;55.43;101650.59;5076227;27;46281;-79
2023/05/24 08:24:17;;;;;;;;;4.00;3.75;;;;;13.29;55.63;101660.06;5075743;28;46006;-80
2023/05/24 08:26:44;;;;;;;;;4.75;4.00;;;;;13.34;55.36;101665.00;5076305;27;46000;-78
2023/05/24 08:29:09;;;;;;;;;4.75;3.50;;;;;13.39;54.23;101660.28;5076486;28;45837;-82
2023/05/24 08:31:35;;;;;;;;;4.00;4.00;;;;;13.45;54.11;101663.38;5075952;27;45662;-79
2023/05/24 08:34:01;;;;;;;;;4.00;3.25;;;;;13.53;53.94;101664.66;5075493;28;45677;-79
2023/05/24 08:36:27;;;;;;;;;5.50;4.00;;;;;13.57;53.18;101664.34;5076031;27;45728;-80
2023/05/24 08:38:52;;;;;;;;;0.25;0.00;;;;;13.63;52.40;101668.34;5076060;27;45674;-80
2023/05/24 08:45:04;;;;;;;;;2.75;2.25;;;;;13.74;51.94;101676.38;5074919;28;45919;-81
2023/05/24 08:47:31;;;;;;;;;3.75;3.75;;;;;13.78;51.87;101660.28;4996665;28;45858;-79
2023/05/24 08:49:57;;;;;;;;;4.75;3.75;;;;;13.83;52.64;101655.53;5013502;28;45674;-80
2023/05/24 08:52:23;;;;;;;;;10.50;2.25;;;;;13.87;51.94;101664.09;5013216;28;45616;-79
2023/05/24 08:54:49;;;;;;;;;4.75;2.75;;;;;13.95;50.42;101658.28;5013000;28;46040;-80
2023/05/24 08:57:16;;;;;;;;;6.50;4.00;;;;;13.98;51.06;101660.72;5013294;28;45801;-79
2023/05/24 08:59:43;;;;;;;;;4.00;4.00;;;;;14.02;50.16;101654.28;5014113;28;45804;-78
2023/05/24 09:02:12;;;;;;;;;6.25;3.25;;;;;14.06;50.33;101645.22;5013324;28;45701;-80
2023/05/24 09:04:43;;;;;;;;;3.25;2.00;;;;;14.10;48.87;101639.63;5012913;28;45934;-80
2023/05/24 09:07:11;;;;;;;;;3.00;2.00;;;;;14.18;48.82;101645.22;5013231;28;45901;-81
2023/05/24 09:09:43;;;;;;;;;1.25;0.50;;;;;14.20;48.52;101635.38;5014601;28;45952;-81
2023/05/24 09:12:13;;;;;;;;;3.00;2.00;;;;;14.26;47.33;101655.22;5015008;28;45632;-79
2023/05/24 09:14:42;;;;;;;;;2.25;2.00;;;;;14.29;48.04;101637.41;5013626;28;45772;-81
2023/05/24 09:17:08;;;;;;;;;4.00;3.00;;;;;14.30;47.87;101632.97;5017228;28;45714;-82
2023/05/24 09:19:33;;;;;;;;;2.50;2.00;;;;;14.37;47.40;101639.50;5016527;28;45651;-81
2023/05/24 09:21:59;;;;;;;;;3.00;2.50;;;;;14.42;47.86;101640.03;5015940;28;45780;-81
2023/05/24 09:24:24;;;;;;;;;2.00;2.00;;;;;14.45;46.82;101633.72;5031501;28;48204;-81
2023/05/24 09:30:11;;;;;;;;;3.00;2.00;;;;;14.57;46.12;101635.50;5075597;28;45672;-81
2023/05/24 09:32:37;;;;;;;;;2.00;2.00;;;;;14.62;45.60;101639.47;5075535;27;46092;-81
2023/05/24 09:35:08;;;;;;;;;2.00;2.00;;;;;14.68;45.78;101635.56;5076698;27;45791;-81
2023/05/24 09:37:35;;;;;;;;;1.25;1.00;;;;;14.75;44.62;101639.44;5076011;28;45546;-79
2023/05/24 09:40:01;;;;;;;;;3.00;1.00;;;;;14.77;43.27;101621.72;5075858;28;45526;-79
2023/05/24 09:42:27;;;;;;;;;2.00;1.75;;;;;14.84;43.09;101637.94;5075121;28;45592;-79
2023/05/24 09:45:11;;;;;;;;;3.00;2.25;;;;;14.88;42.99;101634.13;5075002;27;45801;-79
2023/05/24 09:47:39;;;;;;;;;2.75;2.00;;;;;14.92;43.55;101632.94;5075391;27;45698;-80
2023/05/24 09:50:10;;;;;;;;;4.50;2.00;;;;;14.99;43.22;101632.38;5075530;28;45717;-81
2023/05/24 09:52:36;;;;;;;;;1.25;1.25;;;;;15.03;41.98;101639.13;5074806;27;46301;-81
2023/05/24 09:55:21;;;;;;;;;1.00;1.00;;;;;15.10;42.34;101637.72;5074771;27;46127;-81
2023/05/24 09:58:01;;;;;;;;;2.00;1.75;;;;;15.16;42.99;101641.72;5074885;27;45700;-79
2023/05/24 10:00:26;;;;;;;;;1.75;1.75;;;;;15.21;42.04;101639.56;5074809;27;45857;-81
2023/05/24 10:03:03;;;;;;;;;1.50;1.00;;;;;15.26;42.03;101636.59;5074398;28;45551;-80
2023/05/24 10:05:29;;;;;;;;;2.00;1.00;;;;;15.32;41.47;101639.63;5074386;28;45434;-78
2023/05/24 10:07:56;;;;;;;;;2.50;1.50;;;;;15.39;42.12;101640.81;5074514;27;45527;-79
2023/05/24 10:10:23;;;;;;;;;2.00;1.00;;;;;15.46;41.87;101628.84;5074673;27;45614;-80
2023/05/24 10:12:50;;;;;;;;;1.00;0.75;;;;;15.50;41.45;101626.81;5074293;27;46433;-79
2023/05/24 10:15:16;;;;;;;;;1.00;1.00;;;;;15.55;42.05;101616.78;5074155;27;45888;-79
2023/05/24 10:17:41;;;;;;;;;0.25;0.00;;;;;15.60;40.63;101624.38;5074421;28;45465;-78
2023/05/24 10:20:07;;;;;;;;;3.25;3.00;;;;;15.62;41.08;101620.63;5074314;28;45792;-78
2023/05/24 10:22:42;;;;;;;;;3.00;2.00;;;;;15.71;40.64;101619.13;5073783;28;46742;-78
2023/05/24 10:25:11;;;;;;;;;1.50;1.50;;;;;15.76;40.90;101615.13;5074317;27;45458;-79
2023/05/24 10:27:38;;;;;;;;;3.00;2.00;;;;;15.81;41.28;101613.00;5073953;27;45681;-78
2023/05/24 10:30:15;;;;;;;;;2.75;1.00;;;;;15.86;41.02;101620.59;5074354;27;45722;-80
2023/05/24 10:32:43;;;;;;;;;1.00;0.75;;;;;15.92;41.22;101614.81;5073774;27;46456;-77
2023/05/24 10:35:11;;;;;;;;;2.00;2.00;;;;;15.97;41.53;101604.75;5074051;27;45952;-79
2023/05/24 10:37:37;;;;;;;;;3.00;2.00;;;;;16.07;39.66;101597.75;5089481;27;45737;-78
2023/05/24 10:46:22;;;;;;;;;2.00;2.00;;;;;16.27;40.42;101602.31;5070038;28;45636;-79
2023/05/24 10:48:59;;;;;;;;;2.00;2.00;;;;;16.35;39.06;101601.72;5073725;27;45687;-77
2023/05/24 10:51:38;;;;;;;;;3.00;1.25;;;;;16.38;39.24;101610.25;5074139;27;45594;-81
2023/05/24 10:54:12;;;;;;;;;1.00;0.75;;;;;16.44;38.91;101603.63;5073555;27;46457;-81
2023/05/24 10:56:46;;;;;;;;;1.00;1.00;;;;;16.50;39.93;101605.78;5073568;27;45930;-78
2023/05/24 10:59:29;;;;;;;;;1.50;1.50;;;;;16.55;38.79;101606.25;5073874;27;45674;-79
2023/05/24 11:01:59;;;;;;;;;1.00;1.00;;;;;16.61;38.60;101603.16;5073841;27;45638;-78
2023/05/24 11:04:26;;;;;;;;;3.00;2.00;;;;;16.66;37.22;101603.63;5073495;27;46723;-80
2023/05/24 11:07:02;;;;;;;;;1.00;1.00;;;;;16.72;36.83;101613.72;5074457;27;46148;-81
2023/05/24 11:09:28;;;;;;;;;2.00;2.00;;;;;16.76;37.54;101607.22;5074109;28;45681;-79
2023/05/24 11:11:58;;;;;;;;;1.25;1.25;;;;;16.79;37.24;101609.59;5089451;27;45848;-79
2023/05/24 11:14:28;;;;;;;;;2.00;2.00;;;;;16.85;36.92;101602.97;5073965;27;46581;-78
2023/05/24 11:16:54;;;;;;;;;2.00;2.00;;;;;16.89;37.38;101588.53;5074283;27;46075;-81
2023/05/24 11:19:23;;;;;;;;;1.25;1.25;;;;;16.95;37.61;101611.00;5074007;27;45663;-78
2023/05/24 11:21:52;;;;;;;;;2.00;2.00;;;;;17.02;37.38;101598.94;5074049;27;45507;-80
2023/05/24 11:24:18;;;;;;;;;2.25;2.00;;;;;17.07;36.86;101604.69;5071924;28;46693;-75
2023/05/24 11:26:45;;;;;;;;;2.00;2.00;;;;;17.09;37.71;101600.13;5073925;28;46059;-77
2023/05/24 11:29:19;;;;;;;;;2.75;2.00;;;;;17.16;37.58;101607.44;5073832;27;45783;-79
2023/05/24 11:31:49;;;;;;;;;2.00;2.00;;;;;17.23;37.77;101605.09;5073637;27;45621;-79
2023/05/24 11:34:16;;;;;;;;;3.00;3.00;;;;;17.27;37.55;101603.91;5072920;27;46192;-78
2023/05/24 11:36:41;;;;;;;;;3.00;2.50;;;;;17.33;37.37;101605.19;5073490;28;46492;-81
2023/05/24 11:39:08;;;;;;;;;1.00;1.00;;;;;17.39;37.58;101612.59;5075924;27;45682;-78
2023/05/24 11:41:38;;;;;;;;;3.25;3.00;;;;;17.42;37.72;101594.66;5077088;27;45556;-79
2023/05/24 11:44:03;;;;;;;;;4.50;4.00;;;;;17.48;37.44;101599.47;5076463;27;45708;-77
2023/05/24 11:46:29;;;;;;;;;2.00;2.00;;;;;17.53;37.37;101597.25;5076735;27;45478;-78
2023/05/24 11:48:58;;;;;;;;;1.00;1.00;;;;;17.59;36.76;101609.16;5076714;27;45630;-77
2023/05/24 11:51:36;;;;;;;;;2.50;2.00;;;;;17.61;37.32;101592.16;5076872;28;45621;-78
2023/05/24 11:54:02;;;;;;;;;3.25;2.25;;;;;17.68;36.92;101596.94;5074544;28;48697;-78
2023/05/24 11:56:29;;;;;;;;;3.00;2.00;;;;;17.71;37.26;101583.41;5076398;28;45587;-78
2023/05/24 11:59:14;;;;;;;;;2.00;2.00;;;;;17.75;37.07;101590.16;5076583;27;45454;-78
2023/05/24 12:01:40;;;;;;;;;3.00;2.00;;;;;17.77;36.93;101599.66;5076524;27;45519;-77
2023/05/24 12:04:08;;;;;;;;;3.25;2.50;;;;;17.78;37.16;101597.84;5076038;27;45776;-77